Time;durP1;ratioP1;P1;durP2;ratioP2;P2;SDS_P1;SDS_P2;PMS_P1;PMS_P2;Temp;Humidity;BMP_temperature;BMP_pressure;BME280_temperature;BME280_humidity;BME280_pressure;Samples;Min_cycle;Max_cycle;Signal;HPM_P1;HPM_P2
2024/02/14 00:03:06;;;;;;;;;;;3.10;99.90;;;;;;21293363;27;19915;-79
2024/02/14 00:13:08;;;;;;;;;;;2.90;99.90;;;;;;21285516;27;19926;-79
2024/02/14 00:23:09;;;;;;;;;;;2.50;99.90;;;;;;21247139;27;19915;-79
2024/02/14 00:33:09;;;;;;;;;;;2.60;99.90;;;;;;21294674;27;20326;-78
2024/02/14 00:43:10;;;;;;;;;;;2.60;99.90;;;;;;21269228;27;19923;-80
2024/02/14 00:53:10;;;;;;;;;;;2.50;99.90;;;;;;21254172;27;20282;-79
2024/02/14 01:03:12;;;;;;;;;;;2.60;99.90;;;;;;21294096;27;19922;-79
2024/02/14 01:13:13;;;;;;;;;;;2.70;99.90;;;;;;21302477;27;19916;-80
2024/02/14 01:23:14;;;;;;;;;;;2.70;99.90;;;;;;21301509;27;19915;-80
2024/02/14 01:33:16;;;;;;;;;;;2.60;99.90;;;;;;21318587;27;19960;-79
2024/02/14 01:43:17;;;;;;;;;;;2.60;99.90;;;;;;21302507;27;19954;-80
2024/02/14 01:53:17;;;;;;;;;;;2.60;99.90;;;;;;21304534;27;19911;-79
2024/02/14 02:03:18;;;;;;;;;;;2.20;99.90;;;;;;21296617;27;19915;-79
2024/02/14 02:13:20;;;;;;;;;;;2.40;99.90;;;;;;21284736;27;20027;-79
2024/02/14 02:23:23;;;;;;;;;;;2.20;99.90;;;;;;21298607;27;20074;-79
2024/02/14 02:33:24;;;;;;;;;;;2.30;99.90;;;;;;21295313;27;19964;-79
2024/02/14 02:43:24;;;;;;;;;;;2.50;99.90;;;;;;21312735;27;19950;-79
2024/02/14 02:53:25;;;;;;;;;;;2.60;99.90;;;;;;21345313;27;19918;-79
2024/02/14 03:03:27;;;;;;;;;;;2.80;99.90;;;;;;21332869;27;19923;-80
2024/02/14 03:13:28;;;;;;;;;;;3.00;99.90;;;;;;21336779;27;19960;-80
2024/02/14 03:23:29;;;;;;;;;;;2.90;99.90;;;;;;21305809;27;19919;-80
2024/02/14 03:33:29;;;;;;;;;;;3.00;99.90;;;;;;21321890;27;19958;-80
2024/02/14 03:43:32;;;;;;;;;;;3.10;99.90;;;;;;21330304;27;19915;-80
2024/02/14 03:53:33;;;;;;;;;;;3.10;99.90;;;;;;21336468;27;19911;-80
2024/02/14 04:03:33;;;;;;;;;;;3.10;99.90;;;;;;21318553;27;19915;-79
2024/02/14 04:13:34;;;;;;;;;;;2.70;99.90;;;;;;21307668;27;19915;-79
2024/02/14 04:23:35;;;;;;;;;;;2.20;99.90;;;;;;21320591;27;20396;-79
2024/02/14 04:33:35;;;;;;;;;;;2.20;99.90;;;;;;21358718;27;19922;-79
2024/02/14 04:43:36;;;;;;;;;;;2.30;99.90;;;;;;21383437;27;19919;-78
2024/02/14 04:53:37;;;;;;;;;;;2.50;99.90;;;;;;21376379;27;19915;-79
2024/02/14 05:03:38;;;;;;;;;;;2.80;99.90;;;;;;21316749;27;20277;-79
2024/02/14 05:13:41;;;;;;;;;;;2.80;99.90;;;;;;21321612;27;20013;-79
2024/02/14 05:23:41;;;;;;;;;;;2.90;99.90;;;;;;21327176;27;19915;-80
2024/02/14 05:33:43;;;;;;;;;;;3.10;99.90;;;;;;21307600;27;19942;-79
2024/02/14 05:43:43;;;;;;;;;;;3.10;99.90;;;;;;21327680;27;20455;-79
2024/02/14 05:53:44;;;;;;;;;;;3.10;99.90;;;;;;21324700;27;19994;-80
2024/02/14 06:03:44;;;;;;;;;;;3.30;99.90;;;;;;21357731;27;19936;-80
2024/02/14 06:13:45;;;;;;;;;;;3.40;99.90;;;;;;21314386;27;19919;-81
2024/02/14 06:23:46;;;;;;;;;;;3.40;99.90;;;;;;21313407;27;19927;-79
2024/02/14 06:33:47;;;;;;;;;;;3.30;99.90;;;;;;21299095;27;19941;-81
2024/02/14 06:43:49;;;;;;;;;;;3.20;99.90;;;;;;21311436;27;19975;-81
2024/02/14 06:53:50;;;;;;;;;;;3.30;99.90;;;;;;21341986;27;19911;-81
2024/02/14 07:03:51;;;;;;;;;;;3.50;99.90;;;;;;21294154;27;19921;-79
2024/02/14 07:13:52;;;;;;;;;;;3.70;99.90;;;;;;21296254;27;19915;-79
2024/02/14 07:23:53;;;;;;;;;;;3.90;99.90;;;;;;21294202;27;19980;-80
2024/02/14 07:33:54;;;;;;;;;;;4.00;99.90;;;;;;21282885;27;20011;-80
2024/02/14 07:43:56;;;;;;;;;;;4.10;99.90;;;;;;21265342;27;19915;-79
2024/02/14 07:53:57;;;;;;;;;;;4.60;99.90;;;;;;21320217;27;20385;-79
2024/02/14 08:03:58;;;;;;;;;;;4.90;99.90;;;;;;21291521;27;19920;-79
2024/02/14 08:13:59;;;;;;;;;;;5.00;99.90;;;;;;21240923;27;19918;-80
2024/02/14 08:24:00;;;;;;;;;;;5.10;99.90;;;;;;21203961;27;19985;-79
2024/02/14 08:34:01;;;;;;;;;;;5.20;99.90;;;;;;21164290;28;19916;-80
2024/02/14 08:44:01;;;;;;;;;;;5.30;99.90;;;;;;21152079;28;19916;-81
2024/02/14 08:54:04;;;;;;;;;;;5.60;99.90;;;;;;21166944;28;19912;-79
2024/02/14 09:04:05;;;;;;;;;;;5.80;99.90;;;;;;21190148;28;19916;-80
2024/02/14 09:14:06;;;;;;;;;;;6.00;99.90;;;;;;21166655;28;19911;-80
2024/02/14 09:24:07;;;;;;;;;;;6.40;99.90;;;;;;21173378;28;19920;-81
2024/02/14 09:34:08;;;;;;;;;;;7.40;99.90;;;;;;21207336;27;19911;-81
2024/02/14 09:44:08;;;;;;;;;;;7.30;99.90;;;;;;21218614;27;19922;-80
2024/02/14 09:54:10;;;;;;;;;;;7.80;99.90;;;;;;21180603;28;19912;-81
2024/02/14 10:04:11;;;;;;;;;;;8.30;99.90;;;;;;21192622;27;19923;-80
2024/02/14 10:14:13;;;;;;;;;;;8.70;99.90;;;;;;21208730;27;19919;-80
2024/02/14 10:24:14;;;;;;;;;;;9.00;99.90;;;;;;21208905;27;19922;-80
2024/02/14 10:34:15;;;;;;;;;;;8.70;99.90;;;;;;21187079;27;19959;-79
2024/02/14 10:44:15;;;;;;;;;;;8.70;99.90;;;;;;21199207;27;19960;-79
2024/02/14 10:54:17;;;;;;;;;;;9.20;99.90;;;;;;21203024;27;19959;-79
2024/02/14 11:04:18;;;;;;;;;;;9.90;99.90;;;;;;21223862;27;19930;-79
2024/02/14 11:14:22;;;;;;;;;;;11.10;99.90;;;;;;21285467;27;19911;-79
2024/02/14 11:24:26;;;;;;;;;;;12.00;99.90;;;;;;21297146;27;20380;-79
2024/02/14 11:34:27;;;;;;;;;;;13.00;99.90;;;;;;21311149;27;19915;-79
2024/02/14 11:44:28;;;;;;;;;;;13.10;99.90;;;;;;21327430;27;19915;-79
2024/02/14 11:54:29;;;;;;;;;;;14.00;99.90;;;;;;21313671;27;19918;-79
2024/02/14 12:04:30;;;;;;;;;;;13.90;99.90;;;;;;21321910;27;19915;-79
2024/02/14 12:14:32;;;;;;;;;;;13.40;99.90;;;;;;21342056;27;19911;-78
2024/02/14 12:24:33;;;;;;;;;;;13.80;99.90;;;;;;21332525;27;19922;-80
2024/02/14 12:34:33;;;;;;;;;;;14.10;99.90;;;;;;21312717;27;19911;-80
2024/02/14 12:44:34;;;;;;;;;;;14.10;99.90;;;;;;21324378;27;19921;-80
2024/02/14 12:54:35;;;;;;;;;;;13.60;99.90;;;;;;21298805;27;19933;-79
2024/02/14 13:04:36;;;;;;;;;;;13.30;99.90;;;;;;21315040;27;19946;-78
2024/02/14 13:14:36;;;;;;;;;;;12.90;99.90;;;;;;21344592;27;19919;-79
2024/02/14 13:24:38;;;;;;;;;;;13.20;99.90;;;;;;21351300;27;19919;-79
2024/02/14 13:34:38;;;;;;;;;;;13.20;99.90;;;;;;21336234;27;20349;-79
2024/02/14 13:44:39;;;;;;;;;;;13.20;99.90;;;;;;21330389;27;19984;-79
2024/02/14 13:54:40;;;;;;;;;;;13.20;99.90;;;;;;21327417;27;19916;-79
2024/02/14 14:04:40;;;;;;;;;;;13.40;99.90;;;;;;21348627;27;19914;-78
2024/02/14 14:14:41;;;;;;;;;;;12.80;99.90;;;;;;21343680;27;20319;-78
2024/02/14 14:24:42;;;;;;;;;;;13.00;99.90;;;;;;21327329;27;19915;-79
2024/02/14 14:34:43;;;;;;;;;;;13.20;99.90;;;;;;21280242;27;19911;-79
2024/02/14 14:44:43;;;;;;;;;;;13.10;99.90;;;;;;21291795;27;19915;-79
2024/02/14 14:54:44;;;;;;;;;;;12.80;99.90;;;;;;21292673;27;19915;-78
2024/02/14 15:04:46;;;;;;;;;;;12.90;99.90;;;;;;21285191;27;20382;-78
2024/02/14 15:14:47;;;;;;;;;;;12.70;99.90;;;;;;21309154;27;20409;-78
2024/02/14 15:24:48;;;;;;;;;;;12.50;99.90;;;;;;21291282;27;19919;-78
2024/02/14 15:34:49;;;;;;;;;;;12.60;99.90;;;;;;21296301;27;20007;-79
2024/02/14 15:44:50;;;;;;;;;;;12.40;99.90;;;;;;21298329;27;19915;-78
2024/02/14 15:54:52;;;;;;;;;;;12.30;99.90;;;;;;21277292;27;20278;-77
2024/02/14 16:04:53;;;;;;;;;;;12.30;99.90;;;;;;21244238;27;20387;-78
2024/02/14 16:14:54;;;;;;;;;;;12.20;99.90;;;;;;21288809;27;19938;-79
2024/02/14 16:24:54;;;;;;;;;;;12.10;99.90;;;;;;21286301;27;19935;-78
2024/02/14 16:34:55;;;;;;;;;;;12.00;99.90;;;;;;21316651;27;19912;-79
2024/02/14 16:44:56;;;;;;;;;;;12.00;99.90;;;;;;21351693;27;19915;-80
2024/02/14 16:54:56;;;;;;;;;;;11.50;99.90;;;;;;21346738;27;20269;-80
2024/02/14 17:04:57;;;;;;;;;;;11.10;99.90;;;;;;21352504;27;19915;-80
2024/02/14 17:14:58;;;;;;;;;;;10.60;99.90;;;;;;21336717;27;19911;-78
2024/02/14 17:24:59;;;;;;;;;;;10.40;99.90;;;;;;21347149;27;20373;-80
2024/02/14 17:35:00;;;;;;;;;;;10.30;99.90;;;;;;21328485;27;19912;-77
2024/02/14 17:45:00;;;;;;;;;;;10.30;99.90;;;;;;21361429;27;19922;-79
2024/02/14 17:55:03;;;;;;;;;;;10.30;99.90;;;;;;21362507;27;19986;-80
2024/02/14 18:05:04;;;;;;;;;;;9.90;99.90;;;;;;21368169;27;20385;-80
2024/02/14 18:15:07;;;;;;;;;;;9.80;99.90;;;;;;21356511;27;19936;-80
2024/02/14 18:25:11;;;;;;;;;;;9.70;99.90;;;;;;21363719;27;19921;-80
2024/02/14 18:35:12;;;;;;;;;;;9.60;99.90;;;;;;21364482;27;19915;-80
2024/02/14 18:45:12;;;;;;;;;;;9.50;99.90;;;;;;21367743;27;19959;-80
2024/02/14 18:55:13;;;;;;;;;;;9.40;99.90;;;;;;21360376;27;19912;-80
2024/02/14 19:05:14;;;;;;;;;;;9.20;99.90;;;;;;21365452;27;19915;-80
2024/02/14 19:15:15;;;;;;;;;;;9.10;99.90;;;;;;21358966;27;20230;-79
2024/02/14 19:25:15;;;;;;;;;;;8.90;99.90;;;;;;21360281;27;19967;-79
2024/02/14 19:35:16;;;;;;;;;;;8.70;99.90;;;;;;21333740;27;19964;-79
2024/02/14 19:45:17;;;;;;;;;;;8.70;99.90;;;;;;21326342;27;19915;-80
2024/02/14 19:55:18;;;;;;;;;;;8.70;99.90;;;;;;21344034;27;19919;-78
2024/02/14 20:05:19;;;;;;;;;;;8.50;99.90;;;;;;21420257;27;20554;-76
2024/02/14 20:15:21;;;;;;;;;;;8.50;99.90;;;;;;21364773;27;20458;-80
2024/02/14 20:25:21;;;;;;;;;;;8.50;99.90;;;;;;21309844;27;19926;-79
2024/02/14 20:35:22;;;;;;;;;;;8.50;99.90;;;;;;21345370;27;19927;-80
2024/02/14 20:45:23;;;;;;;;;;;8.50;99.90;;;;;;21333103;27;19919;-78
2024/02/14 20:55:24;;;;;;;;;;;8.60;99.90;;;;;;21351753;27;20291;-79
2024/02/14 21:05:25;;;;;;;;;;;8.50;99.90;;;;;;21352483;27;19919;-78
2024/02/14 21:15:26;;;;;;;;;;;8.30;99.90;;;;;;21352940;27;19963;-79
2024/02/14 21:25:26;;;;;;;;;;;7.90;99.90;;;;;;21353517;27;19935;-79
2024/02/14 21:35:27;;;;;;;;;;;7.70;99.90;;;;;;21304741;27;19974;-78
2024/02/14 21:45:28;;;;;;;;;;;7.40;99.90;;;;;;21344856;27;19919;-78
2024/02/14 21:55:29;;;;;;;;;;;7.00;99.90;;;;;;21359943;27;19911;-77
2024/02/14 22:05:30;;;;;;;;;;;7.00;99.90;;;;;;21363776;27;19943;-78
2024/02/14 22:15:31;;;;;;;;;;;6.70;99.90;;;;;;21370499;27;19936;-78
2024/02/14 22:25:31;;;;;;;;;;;6.50;99.90;;;;;;21343183;27;20373;-78
2024/02/14 22:35:32;;;;;;;;;;;6.60;99.90;;;;;;21357043;27;19965;-77
2024/02/14 22:45:33;;;;;;;;;;;6.20;99.90;;;;;;21328355;27;20393;-79
2024/02/14 22:55:33;;;;;;;;;;;6.20;99.90;;;;;;21303268;27;19911;-79
2024/02/14 23:05:35;;;;;;;;;;;6.20;99.90;;;;;;21302636;27;19915;-79
2024/02/14 23:15:36;;;;;;;;;;;5.90;99.90;;;;;;21299783;27;19964;-79
2024/02/14 23:25:37;;;;;;;;;;;5.50;99.90;;;;;;21304901;27;20313;-79
2024/02/14 23:35:39;;;;;;;;;;;5.50;99.90;;;;;;21298357;27;19923;-78
2024/02/14 23:45:40;;;;;;;;;;;5.50;99.90;;;;;;21300252;27;19968;-80
2024/02/14 23:55:40;;;;;;;;;;;5.30;99.90;;;;;;21295736;27;19917;-78
